sensor_id;sensor_type;location;lat;lon;timestamp;pressure;altitude;pressure_sealevel;temperature;humidity
14120;BME280;7138;49.246;9.100;2024-02-16T00:01:53;98749.31;;;11.94;67.61
14120;BME280;7138;49.246;9.100;2024-02-16T00:04:19;98747.91;;;11.92;68.21
14120;BME280;7138;49.246;9.100;2024-02-16T00:06:46;98755.06;;;11.93;68.29
14120;BME280;7138;49.246;9.100;2024-02-16T00:09:13;98752.59;;;11.96;67.48
14120;BME280;7138;49.246;9.100;2024-02-16T00:11:49;98751.25;;;11.99;68.03
14120;BME280;7138;49.246;9.100;2024-02-16T00:14:16;98750.16;;;12.00;67.51
14120;BME280;7138;49.246;9.100;2024-02-16T00:16:42;98753.50;;;12.02;67.40
14120;BME280;7138;49.246;9.100;2024-02-16T00:19:07;98752.41;;;12.03;67.69
14120;BME280;7138;49.246;9.100;2024-02-16T00:21:33;98748.03;;;12.02;67.67
14120;BME280;7138;49.246;9.100;2024-02-16T00:24:00;98745.19;;;11.97;67.50
14120;BME280;7138;49.246;9.100;2024-02-16T00:26:28;98744.91;;;11.93;67.85
14120;BME280;7138;49.246;9.100;2024-02-16T00:28:54;98746.81;;;11.93;67.73
14120;BME280;7138;49.246;9.100;2024-02-16T00:31:20;98750.38;;;11.93;67.86
14120;BME280;7138;49.246;9.100;2024-02-16T00:33:46;98751.63;;;11.80;68.46
14120;BME280;7138;49.246;9.100;2024-02-16T00:36:11;98749.78;;;11.69;68.54
14120;BME280;7138;49.246;9.100;2024-02-16T00:38:37;98755.66;;;11.56;69.66
14120;BME280;7138;49.246;9.100;2024-02-16T00:41:05;98743.81;;;11.50;69.63
14120;BME280;7138;49.246;9.100;2024-02-16T00:43:31;98736.09;;;11.47;69.48
14120;BME280;7138;49.246;9.100;2024-02-16T00:45:57;98742.16;;;11.49;69.06
14120;BME280;7138;49.246;9.100;2024-02-16T00:48:22;98734.25;;;11.53;69.12
14120;BME280;7138;49.246;9.100;2024-02-16T00:50:49;98735.38;;;11.57;68.56
14120;BME280;7138;49.246;9.100;2024-02-16T00:53:15;98730.22;;;11.61;68.70
14120;BME280;7138;49.246;9.100;2024-02-16T00:55:41;98737.13;;;11.63;68.64
14120;BME280;7138;49.246;9.100;2024-02-16T00:58:08;98731.63;;;11.63;69.11
14120;BME280;7138;49.246;9.100;2024-02-16T01:00:34;98747.56;;;11.66;68.73
14120;BME280;7138;49.246;9.100;2024-02-16T01:03:01;98743.72;;;11.67;68.86
14120;BME280;7138;49.246;9.100;2024-02-16T01:05:27;98747.56;;;11.66;68.92
14120;BME280;7138;49.246;9.100;2024-02-16T01:07:53;98744.31;;;11.69;68.57
14120;BME280;7138;49.246;9.100;2024-02-16T01:10:18;98730.94;;;11.73;68.47
14120;BME280;7138;49.246;9.100;2024-02-16T01:12:44;98725.19;;;11.74;68.08
14120;BME280;7138;49.246;9.100;2024-02-16T01:15:11;98743.28;;;11.75;68.06
14120;BME280;7138;49.246;9.100;2024-02-16T01:17:37;98730.13;;;11.77;68.24
14120;BME280;7138;49.246;9.100;2024-02-16T01:20:07;98743.84;;;11.77;68.11
14120;BME280;7138;49.246;9.100;2024-02-16T01:22:36;98738.06;;;11.74;68.60
14120;BME280;7138;49.246;9.100;2024-02-16T01:25:02;98738.31;;;11.72;68.74
14120;BME280;7138;49.246;9.100;2024-02-16T01:27:28;98727.91;;;11.74;68.36
14120;BME280;7138;49.246;9.100;2024-02-16T01:29:54;98727.91;;;11.74;68.37
14120;BME280;7138;49.246;9.100;2024-02-16T01:32:21;98714.22;;;11.74;68.30
14120;BME280;7138;49.246;9.100;2024-02-16T01:34:47;98730.41;;;11.76;68.67
14120;BME280;7138;49.246;9.100;2024-02-16T01:37:15;98738.06;;;11.74;68.97
14120;BME280;7138;49.246;9.100;2024-02-16T01:39:41;98741.38;;;11.76;68.77
14120;BME280;7138;49.246;9.100;2024-02-16T01:42:08;98740.53;;;11.75;68.76
14120;BME280;7138;49.246;9.100;2024-02-16T01:44:33;98727.41;;;11.77;68.78
14120;BME280;7138;49.246;9.100;2024-02-16T01:46:59;98726.25;;;11.73;68.65
14120;BME280;7138;49.246;9.100;2024-02-16T01:49:28;98737.28;;;11.78;68.71
14120;BME280;7138;49.246;9.100;2024-02-16T01:51:54;98736.00;;;11.81;68.78
14120;BME280;7138;49.246;9.100;2024-02-16T01:54:19;98732.16;;;11.82;68.41
14120;BME280;7138;49.246;9.100;2024-02-16T01:56:46;98726.16;;;11.85;68.68
14120;BME280;7138;49.246;9.100;2024-02-16T01:59:12;98730.53;;;11.86;68.16
14120;BME280;7138;49.246;9.100;2024-02-16T02:01:39;98736.59;;;11.88;68.01
14120;BME280;7138;49.246;9.100;2024-02-16T02:04:05;98731.44;;;11.92;68.12
14120;BME280;7138;49.246;9.100;2024-02-16T02:06:33;98727.59;;;11.93;68.46
14120;BME280;7138;49.246;9.100;2024-02-16T02:08:58;98726.19;;;11.90;68.32
14120;BME280;7138;49.246;9.100;2024-02-16T02:11:24;98713.25;;;11.85;68.47
14120;BME280;7138;49.246;9.100;2024-02-16T02:13:50;98717.91;;;11.85;68.20
14120;BME280;7138;49.246;9.100;2024-02-16T02:16:18;98708.03;;;11.84;68.19
14120;BME280;7138;49.246;9.100;2024-02-16T02:18:45;98709.38;;;11.81;68.60
14120;BME280;7138;49.246;9.100;2024-02-16T02:21:10;98719.16;;;11.77;68.58
14120;BME280;7138;49.246;9.100;2024-02-16T02:23:39;98702.97;;;11.76;68.60
14120;BME280;7138;49.246;9.100;2024-02-16T02:26:05;98706.81;;;11.75;68.92
14120;BME280;7138;49.246;9.100;2024-02-16T02:28:31;98708.72;;;11.74;68.95
14120;BME280;7138;49.246;9.100;2024-02-16T02:30:57;98704.06;;;11.75;68.61
14120;BME280;7138;49.246;9.100;2024-02-16T02:33:23;98701.31;;;11.75;68.89
14120;BME280;7138;49.246;9.100;2024-02-16T02:35:49;98698.31;;;11.76;68.97
14120;BME280;7138;49.246;9.100;2024-02-16T02:38:15;98699.13;;;11.77;68.54
14120;BME280;7138;49.246;9.100;2024-02-16T02:40:42;98703.22;;;11.74;68.66
14120;BME280;7138;49.246;9.100;2024-02-16T02:43:08;98695.81;;;11.75;68.93
14120;BME280;7138;49.246;9.100;2024-02-16T02:45:34;98702.16;;;11.75;68.78
14120;BME280;7138;49.246;9.100;2024-02-16T02:48:00;98689.78;;;11.73;69.09
14120;BME280;7138;49.246;9.100;2024-02-16T02:50:26;98687.56;;;11.70;69.00
14120;BME280;7138;49.246;9.100;2024-02-16T02:52:52;98685.88;;;11.69;68.88
14120;BME280;7138;49.246;9.100;2024-02-16T02:55:18;98687.78;;;11.68;69.16
14120;BME280;7138;49.246;9.100;2024-02-16T02:57:46;98685.31;;;11.67;69.26
14120;BME280;7138;49.246;9.100;2024-02-16T03:00:12;98695.97;;;11.63;69.66
14120;BME280;7138;49.246;9.100;2024-02-16T03:02:38;98697.06;;;11.62;69.09
14120;BME280;7138;49.246;9.100;2024-02-16T03:05:05;98695.16;;;11.63;69.35
14120;BME280;7138;49.246;9.100;2024-02-16T03:07:32;98695.72;;;11.65;69.11
14120;BME280;7138;49.246;9.100;2024-02-16T03:09:58;98699.03;;;11.67;69.47
14120;BME280;7138;49.246;9.100;2024-02-16T03:12:24;98706.44;;;11.66;69.22
14120;BME280;7138;49.246;9.100;2024-02-16T03:14:52;98695.44;;;11.66;69.08
14120;BME280;7138;49.246;9.100;2024-02-16T03:17:17;98699.03;;;11.67;69.13
14120;BME280;7138;49.246;9.100;2024-02-16T03:19:43;98701.47;;;11.63;69.49
14120;BME280;7138;49.246;9.100;2024-02-16T03:22:09;98704.13;;;11.58;69.85
14120;BME280;7138;49.246;9.100;2024-02-16T03:24:35;98696.69;;;11.53;69.94
14120;BME280;7138;49.246;9.100;2024-02-16T03:27:01;98702.16;;;11.53;69.67
14120;BME280;7138;49.246;9.100;2024-02-16T03:29:27;98703.00;;;11.54;70.08
14120;BME280;7138;49.246;9.100;2024-02-16T03:31:54;98695.03;;;11.52;69.80
14120;BME280;7138;49.246;9.100;2024-02-16T03:34:20;98693.03;;;11.48;69.96
14120;BME280;7138;49.246;9.100;2024-02-16T03:36:45;98690.31;;;11.48;70.05
14120;BME280;7138;49.246;9.100;2024-02-16T03:39:11;98700.22;;;11.49;69.74
14120;BME280;7138;49.246;9.100;2024-02-16T03:41:37;98698.03;;;11.51;69.66
14120;BME280;7138;49.246;9.100;2024-02-16T03:44:03;98697.50;;;11.54;69.70
14120;BME280;7138;49.246;9.100;2024-02-16T03:46:29;98689.84;;;11.56;69.24
14120;BME280;7138;49.246;9.100;2024-02-16T03:48:56;98693.16;;;11.58;69.68
14120;BME280;7138;49.246;9.100;2024-02-16T03:51:22;98690.41;;;11.58;69.68
14120;BME280;7138;49.246;9.100;2024-02-16T03:53:48;98695.41;;;11.61;69.55
14120;BME280;7138;49.246;9.100;2024-02-16T03:56:18;98694.59;;;11.61;69.51
14120;BME280;7138;49.246;9.100;2024-02-16T03:58:44;98690.50;;;11.63;69.18
14120;BME280;7138;49.246;9.100;2024-02-16T04:01:10;98692.16;;;11.64;68.81
14120;BME280;7138;49.246;9.100;2024-02-16T04:03:36;98691.06;;;11.65;69.03
14120;BME280;7138;49.246;9.100;2024-02-16T04:06:04;98696.25;;;11.62;69.17
14120;BME280;7138;49.246;9.100;2024-02-16T04:08:30;98690.19;;;11.59;68.92
14120;BME280;7138;49.246;9.100;2024-02-16T04:10:56;98696.72;;;11.58;69.22
14120;BME280;7138;49.246;9.100;2024-02-16T04:13:22;98701.59;;;11.51;69.57
14120;BME280;7138;49.246;9.100;2024-02-16T04:15:48;98708.66;;;11.47;70.06
14120;BME280;7138;49.246;9.100;2024-02-16T04:18:14;98705.69;;;11.49;70.02
14120;BME280;7138;49.246;9.100;2024-02-16T04:20:40;98706.53;;;11.49;69.91
14120;BME280;7138;49.246;9.100;2024-02-16T04:23:08;98714.50;;;11.51;69.78
14120;BME280;7138;49.246;9.100;2024-02-16T04:25:33;98710.41;;;11.53;69.38
14120;BME280;7138;49.246;9.100;2024-02-16T04:27:59;98715.31;;;11.51;69.39
14120;BME280;7138;49.246;9.100;2024-02-16T04:30:25;98709.25;;;11.49;69.55
14120;BME280;7138;49.246;9.100;2024-02-16T04:32:51;98715.56;;;11.50;69.62
14120;BME280;7138;49.246;9.100;2024-02-16T04:35:17;98719.97;;;11.51;69.66
14120;BME280;7138;49.246;9.100;2024-02-16T04:37:43;98722.16;;;11.49;69.67
14120;BME280;7138;49.246;9.100;2024-02-16T04:40:11;98726.53;;;11.50;69.55
14120;BME280;7138;49.246;9.100;2024-02-16T04:42:40;98722.38;;;11.47;69.73
14120;BME280;7138;49.246;9.100;2024-02-16T04:45:10;98733.34;;;11.47;69.79
14120;BME280;7138;49.246;9.100;2024-02-16T04:47:36;98736.03;;;11.42;69.79
14120;BME280;7138;49.246;9.100;2024-02-16T04:50:03;98734.91;;;11.38;70.35
14120;BME280;7138;49.246;9.100;2024-02-16T04:52:29;98739.22;;;11.34;70.21
14120;BME280;7138;49.246;9.100;2024-02-16T04:54:55;98741.13;;;11.34;70.46
14120;BME280;7138;49.246;9.100;2024-02-16T04:57:22;98739.47;;;11.33;69.82
14120;BME280;7138;49.246;9.100;2024-02-16T04:59:48;98739.47;;;11.33;70.02
14120;BME280;7138;49.246;9.100;2024-02-16T05:02:14;98744.69;;;11.34;69.96
14120;BME280;7138;49.246;9.100;2024-02-16T05:04:40;98737.56;;;11.33;70.22
14120;BME280;7138;49.246;9.100;2024-02-16T05:07:05;98732.63;;;11.35;69.76
14120;BME280;7138;49.246;9.100;2024-02-16T05:09:32;98729.91;;;11.35;69.83
14120;BME280;7138;49.246;9.100;2024-02-16T05:11:58;98738.94;;;11.36;69.80
14120;BME280;7138;49.246;9.100;2024-02-16T05:14:25;98734.16;;;11.26;69.97
14120;BME280;7138;49.246;9.100;2024-02-16T05:16:51;98737.09;;;11.19;70.33
14120;BME280;7138;49.246;9.100;2024-02-16T05:19:17;98741.19;;;11.17;70.13
14120;BME280;7138;49.246;9.100;2024-02-16T05:21:43;98749.63;;;11.15;70.01
14120;BME280;7138;49.246;9.100;2024-02-16T05:24:10;98751.81;;;11.13;70.09
14120;BME280;7138;49.246;9.100;2024-02-16T05:26:36;98751.22;;;11.11;69.56
14120;BME280;7138;49.246;9.100;2024-02-16T05:29:02;98753.31;;;11.04;69.83
14120;BME280;7138;49.246;9.100;2024-02-16T05:31:30;98744.78;;;11.00;69.71
14120;BME280;7138;49.246;9.100;2024-02-16T05:33:56;98754.34;;;10.98;70.07
14120;BME280;7138;49.246;9.100;2024-02-16T05:36:23;98751.25;;;10.94;69.61
14120;BME280;7138;49.246;9.100;2024-02-16T05:38:55;98751.75;;;10.91;69.85
14120;BME280;7138;49.246;9.100;2024-02-16T05:41:22;98758.84;;;10.87;69.64
14120;BME280;7138;49.246;9.100;2024-02-16T05:43:48;98753.84;;;10.84;69.64
14120;BME280;7138;49.246;9.100;2024-02-16T05:46:17;98759.75;;;10.76;70.88
14120;BME280;7138;49.246;9.100;2024-02-16T05:48:45;98755.84;;;10.72;70.57
14120;BME280;7138;49.246;9.100;2024-02-16T05:51:12;98753.19;;;10.60;70.82
14120;BME280;7138;49.246;9.100;2024-02-16T05:53:38;98760.50;;;10.55;71.18
14120;BME280;7138;49.246;9.100;2024-02-16T05:56:05;98759.31;;;10.51;71.16
14120;BME280;7138;49.246;9.100;2024-02-16T05:58:31;98753.28;;;10.49;71.02
14120;BME280;7138;49.246;9.100;2024-02-16T06:00:57;98759.59;;;10.49;71.00
14120;BME280;7138;49.246;9.100;2024-02-16T06:03:23;98756.84;;;10.49;70.58
14120;BME280;7138;49.246;9.100;2024-02-16T06:05:50;98761.50;;;10.49;70.60
14120;BME280;7138;49.246;9.100;2024-02-16T06:08:16;98763.41;;;10.48;70.34
14120;BME280;7138;49.246;9.100;2024-02-16T06:10:43;98764.72;;;10.46;70.92
14120;BME280;7138;49.246;9.100;2024-02-16T06:13:09;98761.66;;;10.42;70.95
14120;BME280;7138;49.246;9.100;2024-02-16T06:15:35;98766.22;;;10.36;71.67
14120;BME280;7138;49.246;9.100;2024-02-16T06:18:03;98755.75;;;10.33;71.42
14120;BME280;7138;49.246;9.100;2024-02-16T06:20:29;98762.78;;;10.29;71.27
14120;BME280;7138;49.246;9.100;2024-02-16T06:22:56;98771.50;;;10.26;71.74
14120;BME280;7138;49.246;9.100;2024-02-16T06:25:22;98768.44;;;10.23;71.52
14120;BME280;7138;49.246;9.100;2024-02-16T06:27:48;98770.34;;;10.22;71.62
14120;BME280;7138;49.246;9.100;2024-02-16T06:30:14;98775.56;;;10.24;71.96
14120;BME280;7138;49.246;9.100;2024-02-16T06:32:40;98772.00;;;10.23;72.00
14120;BME280;7138;49.246;9.100;2024-02-16T06:35:08;98772.34;;;10.27;71.79
14120;BME280;7138;49.246;9.100;2024-02-16T06:37:34;98776.47;;;10.29;71.91
14120;BME280;7138;49.246;9.100;2024-02-16T06:40:02;98783.38;;;10.32;71.63
14120;BME280;7138;49.246;9.100;2024-02-16T06:42:28;98783.72;;;10.35;71.95
14120;BME280;7138;49.246;9.100;2024-02-16T06:44:54;98796.06;;;10.38;71.96
14120;BME280;7138;49.246;9.100;2024-02-16T06:47:20;98787.59;;;10.39;71.87
14120;BME280;7138;49.246;9.100;2024-02-16T06:49:46;98802.38;;;10.38;71.21
14120;BME280;7138;49.246;9.100;2024-02-16T06:52:12;98802.03;;;10.35;71.98
14120;BME280;7138;49.246;9.100;2024-02-16T06:54:38;98807.50;;;10.35;72.02
14120;BME280;7138;49.246;9.100;2024-02-16T06:57:05;98814.66;;;10.36;72.02
14120;BME280;7138;49.246;9.100;2024-02-16T06:59:31;98817.13;;;10.37;72.32
14120;BME280;7138;49.246;9.100;2024-02-16T07:01:57;98815.47;;;10.36;72.77
14120;BME280;7138;49.246;9.100;2024-02-16T07:04:23;98808.09;;;10.37;72.39
14120;BME280;7138;49.246;9.100;2024-02-16T07:06:49;98824.84;;;10.40;72.58
14120;BME280;7138;49.246;9.100;2024-02-16T07:09:15;98816.16;;;10.43;72.65
14120;BME280;7138;49.246;9.100;2024-02-16T07:11:41;98818.97;;;10.49;72.31
14120;BME280;7138;49.246;9.100;2024-02-16T07:14:08;98824.56;;;10.54;72.30
14120;BME280;7138;49.246;9.100;2024-02-16T07:16:34;98821.31;;;10.57;72.20
14120;BME280;7138;49.246;9.100;2024-02-16T07:19:00;98819.16;;;10.59;72.04
14120;BME280;7138;49.246;9.100;2024-02-16T07:21:26;98826.03;;;10.61;72.07
14120;BME280;7138;49.246;9.100;2024-02-16T07:23:52;98826.66;;;10.63;72.36
14120;BME280;7138;49.246;9.100;2024-02-16T07:26:18;98832.44;;;10.67;72.01
14120;BME280;7138;49.246;9.100;2024-02-16T07:28:44;98835.25;;;10.72;72.01
14120;BME280;7138;49.246;9.100;2024-02-16T07:31:12;98838.59;;;10.74;71.82
14120;BME280;7138;49.246;9.100;2024-02-16T07:33:40;98845.75;;;10.75;71.72
14120;BME280;7138;49.246;9.100;2024-02-16T07:36:07;98841.66;;;10.78;71.97
14120;BME280;7138;49.246;9.100;2024-02-16T07:38:33;98845.25;;;10.78;71.97
14120;BME280;7138;49.246;9.100;2024-02-16T07:40:59;98840.84;;;10.77;72.31
14120;BME280;7138;49.246;9.100;2024-02-16T07:43:26;98843.06;;;10.80;72.03
14120;BME280;7138;49.246;9.100;2024-02-16T07:45:52;98840.19;;;10.87;72.33
14120;BME280;7138;49.246;9.100;2024-02-16T07:48:22;98847.13;;;10.94;72.16
14120;BME280;7138;49.246;9.100;2024-02-16T07:50:47;98851.94;;;11.04;72.42
14120;BME280;7138;49.246;9.100;2024-02-16T07:53:15;98850.19;;;11.15;72.11
14120;BME280;7138;49.246;9.100;2024-02-16T07:55:41;98851.53;;;11.29;72.40
14120;BME280;7138;49.246;9.100;2024-02-16T07:58:07;98853.66;;;11.44;72.02
14120;BME280;7138;49.246;9.100;2024-02-16T08:00:34;98856.97;;;11.63;72.33
14120;BME280;7138;49.246;9.100;2024-02-16T08:03:00;98862.19;;;11.81;71.95
14120;BME280;7138;49.246;9.100;2024-02-16T08:05:27;98867.06;;;12.01;71.60
14120;BME280;7138;49.246;9.100;2024-02-16T08:07:53;98856.34;;;12.21;70.77
14120;BME280;7138;49.246;9.100;2024-02-16T08:10:19;98861.75;;;12.38;70.57
14120;BME280;7138;49.246;9.100;2024-02-16T08:12:46;98864.16;;;12.56;70.43
14120;BME280;7138;49.246;9.100;2024-02-16T08:15:12;98865.41;;;12.70;69.42
14120;BME280;7138;49.246;9.100;2024-02-16T08:17:40;98854.75;;;12.79;68.74
14120;BME280;7138;49.246;9.100;2024-02-16T08:20:07;98858.44;;;12.90;68.74
14120;BME280;7138;49.246;9.100;2024-02-16T08:22:35;98856.88;;;12.99;68.03
14120;BME280;7138;49.246;9.100;2024-02-16T08:25:01;98855.53;;;13.07;68.51
14120;BME280;7138;49.246;9.100;2024-02-16T08:27:27;98855.59;;;13.12;68.08
14120;BME280;7138;49.246;9.100;2024-02-16T08:29:53;98854.78;;;13.16;67.51
14120;BME280;7138;49.246;9.100;2024-02-16T08:32:19;98851.56;;;13.19;67.10
14120;BME280;7138;49.246;9.100;2024-02-16T08:34:46;98857.66;;;13.26;67.59
14120;BME280;7138;49.246;9.100;2024-02-16T08:37:14;98859.09;;;13.34;67.38
14120;BME280;7138;49.246;9.100;2024-02-16T08:39:41;98853.59;;;13.39;67.12
14120;BME280;7138;49.246;9.100;2024-02-16T08:42:07;98848.19;;;13.49;66.80
14120;BME280;7138;49.246;9.100;2024-02-16T08:44:34;98846.56;;;13.53;65.79
14120;BME280;7138;49.246;9.100;2024-02-16T08:47:00;98848.78;;;13.56;65.69
14120;BME280;7138;49.246;9.100;2024-02-16T08:49:26;98850.75;;;13.61;65.49
14120;BME280;7138;49.246;9.100;2024-02-16T08:51:52;98853.53;;;13.66;65.49
14120;BME280;7138;49.246;9.100;2024-02-16T08:54:18;98860.72;;;13.72;65.64
14120;BME280;7138;49.246;9.100;2024-02-16T08:56:45;98857.44;;;13.80;64.79
14120;BME280;7138;49.246;9.100;2024-02-16T08:59:11;98855.56;;;13.91;64.78
14120;BME280;7138;49.246;9.100;2024-02-16T09:01:38;98858.91;;;13.98;64.25
14120;BME280;7138;49.246;9.100;2024-02-16T09:04:07;98865.28;;;14.09;64.24
14120;BME280;7138;49.246;9.100;2024-02-16T09:06:32;98866.44;;;14.18;63.58
14120;BME280;7138;49.246;9.100;2024-02-16T09:09:01;98867.25;;;14.24;63.81
14120;BME280;7138;49.246;9.100;2024-02-16T09:11:27;98868.41;;;14.28;63.35
14120;BME280;7138;49.246;9.100;2024-02-16T09:13:54;98867.84;;;14.31;63.11
14120;BME280;7138;49.246;9.100;2024-02-16T09:16:20;98878.91;;;14.41;62.96
14120;BME280;7138;49.246;9.100;2024-02-16T09:18:46;98870.66;;;14.46;62.56
14120;BME280;7138;49.246;9.100;2024-02-16T09:21:14;98876.75;;;14.53;62.19
14120;BME280;7138;49.246;9.100;2024-02-16T09:23:40;98872.66;;;14.61;61.90
14120;BME280;7138;49.246;9.100;2024-02-16T09:26:06;98879.28;;;14.70;61.94
14120;BME280;7138;49.246;9.100;2024-02-16T09:28:39;98881.25;;;14.80;61.38
14120;BME280;7138;49.246;9.100;2024-02-16T09:31:07;98893.41;;;14.89;61.43
14120;BME280;7138;49.246;9.100;2024-02-16T09:33:34;98885.09;;;14.99;60.99
14120;BME280;7138;49.246;9.100;2024-02-16T09:36:00;98891.19;;;15.06;60.84
14120;BME280;7138;49.246;9.100;2024-02-16T09:38:26;98888.97;;;15.18;61.18
14120;BME280;7138;49.246;9.100;2024-02-16T09:40:52;98895.88;;;15.31;60.51
14120;BME280;7138;49.246;9.100;2024-02-16T09:43:25;98888.41;;;15.42;59.53
14120;BME280;7138;49.246;9.100;2024-02-16T09:45:54;98900.03;;;15.54;59.86
14120;BME280;7138;49.246;9.100;2024-02-16T09:48:22;98904.47;;;15.65;59.59
14120;BME280;7138;49.246;9.100;2024-02-16T09:50:50;98902.22;;;15.72;59.45
14120;BME280;7138;49.246;9.100;2024-02-16T09:53:19;98909.38;;;15.83;59.13
14120;BME280;7138;49.246;9.100;2024-02-16T09:55:49;98905.75;;;15.93;58.55
14120;BME280;7138;49.246;9.100;2024-02-16T09:58:16;98909.31;;;16.04;58.76
14120;BME280;7138;49.246;9.100;2024-02-16T10:00:47;98904.31;;;16.16;57.58
14120;BME280;7138;49.246;9.100;2024-02-16T10:03:23;98913.38;;;16.27;57.49
14120;BME280;7138;49.246;9.100;2024-02-16T10:05:50;98905.34;;;16.35;58.31
14120;BME280;7138;49.246;9.100;2024-02-16T10:08:17;98918.81;;;16.47;58.15
14120;BME280;7138;49.246;9.100;2024-02-16T10:10:43;98921.59;;;16.52;57.69
14120;BME280;7138;49.246;9.100;2024-02-16T10:13:09;98933.16;;;16.59;57.88
14120;BME280;7138;49.246;9.100;2024-02-16T10:15:37;98920.44;;;16.63;57.69
14120;BME280;7138;49.246;9.100;2024-02-16T10:18:05;98922.88;;;16.75;57.22
14120;BME280;7138;49.246;9.100;2024-02-16T10:20:34;98933.88;;;16.85;56.68
14120;BME280;7138;49.246;9.100;2024-02-16T10:23:05;98923.88;;;16.94;56.46
14120;BME280;7138;49.246;9.100;2024-02-16T10:25:31;98923.81;;;16.99;56.26
14120;BME280;7138;49.246;9.100;2024-02-16T10:27:58;98925.16;;;17.07;56.26
14120;BME280;7138;49.246;9.100;2024-02-16T10:30:30;98925.09;;;17.17;55.30
14120;BME280;7138;49.246;9.100;2024-02-16T10:32:59;98925.03;;;17.22;56.17
14120;BME280;7138;49.246;9.100;2024-02-16T10:35:25;98925.03;;;17.27;55.67
14120;BME280;7138;49.246;9.100;2024-02-16T10:37:56;98936.59;;;17.34;55.67
14120;BME280;7138;49.246;9.100;2024-02-16T10:40:24;98931.91;;;17.35;55.09
14120;BME280;7138;49.246;9.100;2024-02-16T10:42:50;98933.84;;;17.34;55.66
14120;BME280;7138;49.246;9.100;2024-02-16T10:45:17;98932.72;;;17.35;55.69
14120;BME280;7138;49.246;9.100;2024-02-16T10:47:44;98935.97;;;17.43;55.85
14120;BME280;7138;49.246;9.100;2024-02-16T10:50:10;98935.94;;;17.48;55.93
14120;BME280;7138;49.246;9.100;2024-02-16T10:52:39;98937.00;;;17.52;55.73
14120;BME280;7138;49.246;9.100;2024-02-16T10:55:09;98942.25;;;17.53;55.56
14120;BME280;7138;49.246;9.100;2024-02-16T10:57:36;98940.88;;;17.56;55.31
14120;BME280;7138;49.246;9.100;2024-02-16T11:00:09;98937.25;;;17.55;54.78
14120;BME280;7138;49.246;9.100;2024-02-16T11:02:52;98938.94;;;17.51;53.43
14120;BME280;7138;49.246;9.100;2024-02-16T11:05:18;98943.44;;;17.42;54.67
14120;BME280;7138;49.246;9.100;2024-02-16T11:07:45;98943.72;;;17.41;54.49
14120;BME280;7138;49.246;9.100;2024-02-16T11:10:13;98943.53;;;17.32;54.43
14120;BME280;7138;49.246;9.100;2024-02-16T11:12:44;98948.28;;;17.26;54.19
14120;BME280;7138;49.246;9.100;2024-02-16T11:15:15;98946.63;;;17.25;54.95
14120;BME280;7138;49.246;9.100;2024-02-16T11:17:41;98941.13;;;17.20;55.05
14120;BME280;7138;49.246;9.100;2024-02-16T11:20:09;98937.06;;;17.08;53.41
14120;BME280;7138;49.246;9.100;2024-02-16T11:22:37;98941.06;;;16.91;55.09
14120;BME280;7138;49.246;9.100;2024-02-16T11:25:07;98941.88;;;16.92;54.55
14120;BME280;7138;49.246;9.100;2024-02-16T11:27:36;98943.53;;;16.93;55.23
14120;BME280;7138;49.246;9.100;2024-02-16T11:30:03;98945.41;;;17.02;54.50
14120;BME280;7138;49.246;9.100;2024-02-16T11:32:32;98934.28;;;17.08;54.77
14120;BME280;7138;49.246;9.100;2024-02-16T11:35:05;98949.19;;;17.17;54.10
14120;BME280;7138;49.246;9.100;2024-02-16T11:37:32;98941.91;;;17.26;54.94
14120;BME280;7138;49.246;9.100;2024-02-16T11:39:58;98934.22;;;17.23;52.10
14120;BME280;7138;49.246;9.100;2024-02-16T11:42:24;98946.72;;;17.10;53.01
14120;BME280;7138;49.246;9.100;2024-02-16T11:44:53;98942.56;;;17.13;54.06
14120;BME280;7138;49.246;9.100;2024-02-16T11:47:20;98934.22;;;17.23;54.42
14120;BME280;7138;49.246;9.100;2024-02-16T11:50:01;98928.78;;;17.42;55.49
14120;BME280;7138;49.246;9.100;2024-02-16T11:52:27;98930.31;;;17.58;55.31
14120;BME280;7138;49.246;9.100;2024-02-16T11:54:54;98928.75;;;17.81;55.00
14120;BME280;7138;49.246;9.100;2024-02-16T11:57:20;98930.06;;;17.88;53.56
14120;BME280;7138;49.246;9.100;2024-02-16T11:59:46;98924.94;;;18.01;53.34
14120;BME280;7138;49.246;9.100;2024-02-16T12:02:20;98932.31;;;18.10;52.39
14120;BME280;7138;49.246;9.100;2024-02-16T12:04:58;98926.59;;;18.26;53.47
14120;BME280;7138;49.246;9.100;2024-02-16T12:07:26;98923.78;;;18.31;53.22
14120;BME280;7138;49.246;9.100;2024-02-16T12:09:57;98918.75;;;18.33;52.49
14120;BME280;7138;49.246;9.100;2024-02-16T12:12:24;98927.91;;;18.09;51.34
14120;BME280;7138;49.246;9.100;2024-02-16T12:14:50;98926.81;;;18.05;52.82
14120;BME280;7138;49.246;9.100;2024-02-16T12:17:15;98919.03;;;18.07;53.85
14120;BME280;7138;49.246;9.100;2024-02-16T12:19:45;98920.41;;;18.10;52.64
14120;BME280;7138;49.246;9.100;2024-02-16T12:22:17;98921.25;;;18.10;52.58
14120;BME280;7138;49.246;9.100;2024-02-16T12:24:44;98924.75;;;18.16;53.24
14120;BME280;7138;49.246;9.100;2024-02-16T12:27:10;98916.97;;;18.18;53.31
14120;BME280;7138;49.246;9.100;2024-02-16T12:29:36;98918.91;;;18.17;52.28
14120;BME280;7138;49.246;9.100;2024-02-16T12:32:02;98914.38;;;18.27;53.15
14120;BME280;7138;49.246;9.100;2024-02-16T12:34:27;98926.00;;;18.05;52.92
14120;BME280;7138;49.246;9.100;2024-02-16T12:36:55;98921.47;;;18.14;53.56
14120;BME280;7138;49.246;9.100;2024-02-16T12:39:21;98922.78;;;18.21;53.54
14120;BME280;7138;49.246;9.100;2024-02-16T12:41:47;98919.06;;;18.31;53.37
14120;BME280;7138;49.246;9.100;2024-02-16T12:44:15;98920.34;;;18.39;53.18
14120;BME280;7138;49.246;9.100;2024-02-16T12:46:41;98922.75;;;18.45;52.93
14120;BME280;7138;49.246;9.100;2024-02-16T12:49:09;98910.53;;;18.46;52.38
14120;BME280;7138;49.246;9.100;2024-02-16T12:51:35;98924.84;;;18.35;51.70
14120;BME280;7138;49.246;9.100;2024-02-16T12:54:02;98925.19;;;18.28;52.53
14120;BME280;7138;49.246;9.100;2024-02-16T12:56:30;98926.41;;;18.17;52.98
14120;BME280;7138;49.246;9.100;2024-02-16T12:58:55;98931.31;;;18.25;52.86
14120;BME280;7138;49.246;9.100;2024-02-16T13:01:22;98929.19;;;18.17;52.97
14120;BME280;7138;49.246;9.100;2024-02-16T13:03:48;98942.59;;;18.10;53.51
14120;BME280;7138;49.246;9.100;2024-02-16T13:06:14;98940.25;;;17.93;53.04
14120;BME280;7138;49.246;9.100;2024-02-16T13:08:40;98938.66;;;17.87;53.65